Time;durP1;ratioP1;P1;durP2;ratioP2;P2;SDS_P1;SDS_P2;PMS_P1;PMS_P2;Temp;Humidity;BMP_temperature;BMP_pressure;BME280_temperature;BME280_humidity;BME280_pressure;Samples;Min_cycle;Max_cycle;Signal;HPM_P1;HPM_P2
2021/01/10 00:02:26;;;;;;;15.93;8.95;;;0.30;80.50;;;;;;5048912;28;20056;-88
2021/01/10 00:04:51;;;;;;;17.33;8.85;;;0.30;80.50;;;;;;5043862;28;20029;-88
2021/01/10 00:07:24;;;;;;;14.63;8.88;;;0.30;80.50;;;;;;5041615;28;20025;-88
2021/01/10 00:09:50;;;;;;;;;;;0.30;80.50;;;;;;5052771;28;20376;-88
2021/01/10 00:12:23;;;;;;;13.30;8.30;;;0.30;80.60;;;;;;5043565;28;19925;-87
2021/01/10 00:14:49;;;;;;;13.90;8.45;;;0.30;80.40;;;;;;5046436;28;20360;-87
2021/01/10 00:17:14;;;;;;;15.93;9.10;;;0.40;80.40;;;;;;5046704;28;20032;-87
2021/01/10 00:19:47;;;;;;;16.20;9.38;;;0.40;80.40;;;;;;5046610;28;20025;-87
2021/01/10 00:22:14;;;;;;;15.75;9.07;;;0.40;80.40;;;;;;5047623;28;20025;-88
2021/01/10 00:24:41;;;;;;;17.92;10.07;;;0.50;80.40;;;;;;5041762;28;20026;-88
2021/01/10 00:27:09;;;;;;;16.08;9.32;;;0.50;80.40;;;;;;5039309;28;20033;-88
2021/01/10 00:29:35;;;;;;;15.40;8.70;;;0.50;80.30;;;;;;5042916;28;20032;-87
2021/01/10 00:32:01;;;;;;;17.98;9.77;;;0.50;80.20;;;;;;5044372;28;20056;-87
2021/01/10 00:34:26;;;;;;;18.52;9.85;;;0.40;80.20;;;;;;5048310;28;20025;-89
2021/01/10 00:36:52;;;;;;;19.40;9.82;;;0.50;80.40;;;;;;5047374;28;20029;-86
2021/01/10 00:39:17;;;;;;;16.25;9.57;;;0.50;80.40;;;;;;5049145;28;20034;-89
2021/01/10 00:41:43;;;;;;;16.67;9.48;;;0.50;80.40;;;;;;5049463;28;20060;-87
2021/01/10 00:44:09;;;;;;;15.85;9.20;;;0.50;80.40;;;;;;5047419;28;20089;-88
2021/01/10 00:46:34;;;;;;;15.48;9.10;;;0.50;80.30;;;;;;5048132;28;20440;-89
2021/01/10 00:49:00;;;;;;;17.25;9.15;;;0.50;80.40;;;;;;5042527;28;20036;-87
2021/01/10 00:51:26;;;;;;;16.70;8.27;;;0.50;80.30;;;;;;5044975;28;20064;-86
2021/01/10 00:53:51;;;;;;;15.85;8.65;;;0.50;80.40;;;;;;5041570;28;20034;-86
2021/01/10 00:56:17;;;;;;;16.90;8.77;;;0.50;80.40;;;;;;5041879;28;20025;-87
2021/01/10 00:58:43;;;;;;;14.63;8.02;;;0.50;80.40;;;;;;5044410;28;20059;-88
2021/01/10 01:01:09;;;;;;;16.27;8.98;;;0.50;80.40;;;;;;5044348;28;20025;-88
2021/01/10 01:03:35;;;;;;;19.30;8.60;;;0.50;80.40;;;;;;5044776;28;20021;-88
2021/01/10 01:06:01;;;;;;;14.52;7.60;;;0.50;80.40;;;;;;5044472;28;20025;-89
2021/01/10 01:08:26;;;;;;;13.82;8.60;;;0.60;80.50;;;;;;5045317;28;20048;-88
2021/01/10 01:10:52;;;;;;;16.65;9.35;;;0.50;80.40;;;;;;5043431;28;20033;-85
2021/01/10 01:13:18;;;;;;;15.82;9.10;;;0.60;80.40;;;;;;5044597;28;20036;-89
2021/01/10 01:15:43;;;;;;;16.17;8.77;;;0.50;80.30;;;;;;5041657;28;20065;-88
2021/01/10 01:18:09;;;;;;;17.90;9.38;;;0.50;80.40;;;;;;5040527;28;20033;-87
2021/01/10 01:20:35;;;;;;;15.65;8.90;;;0.50;80.50;;;;;;5041397;28;20147;-88
2021/01/10 01:23:02;;;;;;;15.07;9.02;;;0.50;80.40;;;;;;5041072;28;20029;-88
2021/01/10 01:25:28;;;;;;;18.35;8.65;;;0.40;80.40;;;;;;5036177;28;20093;-88
2021/01/10 01:27:53;;;;;;;15.77;9.45;;;0.40;80.50;;;;;;5037215;28;20049;-89
2021/01/10 01:30:19;;;;;;;16.25;9.50;;;0.40;80.70;;;;;;5035441;28;20099;-88
2021/01/10 01:32:44;;;;;;;14.43;9.15;;;0.50;80.70;;;;;;5034548;28;20032;-88
2021/01/10 01:35:10;;;;;;;17.35;9.57;;;0.50;80.50;;;;;;5034547;28;20021;-88
2021/01/10 01:37:36;;;;;;;17.00;9.27;;;0.50;80.60;;;;;;5035053;28;20033;-89
2021/01/10 01:40:05;;;;;;;14.65;9.15;;;0.50;80.50;;;;;;5036039;28;20480;-88
2021/01/10 01:42:31;;;;;;;15.90;9.35;;;0.50;80.50;;;;;;5036499;28;20101;-87
2021/01/10 01:44:56;;;;;;;15.77;8.52;;;0.60;80.50;;;;;;5035850;28;20063;-88
2021/01/10 01:47:22;;;;;;;14.95;8.30;;;0.60;80.50;;;;;;5039555;28;20022;-88
2021/01/10 01:49:49;;;;;;;16.92;9.63;;;0.60;80.50;;;;;;5039188;28;20120;-87
2021/01/10 01:52:15;;;;;;;15.82;9.43;;;0.50;80.40;;;;;;5040060;28;20026;-88
2021/01/10 01:54:42;;;;;;;15.38;8.90;;;0.50;80.50;;;;;;5036676;28;20077;-88
2021/01/10 01:57:07;;;;;;;14.45;8.63;;;0.50;80.60;;;;;;5043379;28;20038;-88
2021/01/10 01:59:33;;;;;;;17.85;9.60;;;0.50;80.50;;;;;;5044597;28;20530;-88
2021/01/10 02:01:58;;;;;;;15.00;8.82;;;0.50;80.50;;;;;;5045211;28;20044;-88
2021/01/10 02:04:35;;;;;;;15.40;8.90;;;0.50;80.50;;;;;;5044012;28;20060;-88
2021/01/10 02:07:28;;;;;;;15.68;9.15;;;0.50;80.50;;;;;;5044977;28;20025;-87
2021/01/10 02:10:05;;;;;;;15.68;9.27;;;0.50;80.70;;;;;;5045504;28;20112;-88
2021/01/10 02:12:37;;;;;;;14.65;8.43;;;0.50;80.50;;;;;;5040965;28;20055;-88
2021/01/10 02:15:09;;;;;;;16.13;9.40;;;0.60;80.60;;;;;;5046503;28;20047;-88
2021/01/10 02:17:35;;;;;;;13.85;8.43;;;0.70;81.00;;;;;;5042076;28;20097;-88
2021/01/10 02:20:29;;;;;;;15.38;8.85;;;0.70;80.50;;;;;;5047657;28;20026;-88
2021/01/10 02:23:09;;;;;;;13.15;8.10;;;0.70;80.50;;;;;;5045189;28;20060;-89
2021/01/10 02:25:36;;;;;;;14.27;8.50;;;0.80;80.30;;;;;;5047250;28;20056;-86
2021/01/10 02:28:03;;;;;;;15.15;8.30;;;0.70;80.00;;;;;;5051506;28;20034;-87
2021/01/10 02:30:32;;;;;;;16.35;9.55;;;0.60;79.90;;;;;;5052736;28;20104;-87
2021/01/10 02:33:36;;;;;;;15.10;8.93;;;0.50;80.40;;;;;;5051428;28;20029;-87
2021/01/10 02:36:23;;;;;;;13.57;8.48;;;0.50;80.80;;;;;;5040537;28;20034;-88
2021/01/10 02:38:55;;;;;;;19.75;9.30;;;0.50;80.80;;;;;;5047828;28;20029;-86
2021/01/10 02:41:41;;;;;;;17.03;8.70;;;0.50;80.60;;;;;;5048422;28;20036;-87
2021/01/10 02:44:24;;;;;;;15.93;9.02;;;0.50;80.80;;;;;;5046664;28;20108;-87
2021/01/10 02:46:50;;;;;;;;;;;0.50;80.70;;;;;;5047168;28;20387;-88
2021/01/10 02:49:18;;;;;;;14.35;8.52;;;0.60;80.80;;;;;;5034223;28;19980;-87
2021/01/10 02:51:44;;;;;;;16.02;8.60;;;0.60;80.50;;;;;;5031856;28;20017;-87
2021/01/10 02:54:14;;;;;;;16.45;9.25;;;0.70;80.40;;;;;;5043437;28;20406;-87
2021/01/10 02:56:49;;;;;;;15.15;8.70;;;0.70;80.40;;;;;;5036938;28;20383;-87
2021/01/10 02:59:24;;;;;;;14.88;8.45;;;0.70;80.20;;;;;;5043036;28;20025;-88
2021/01/10 03:01:51;;;;;;;15.00;8.32;;;0.70;80.20;;;;;;5046022;28;20022;-86
2021/01/10 03:04:18;;;;;;;14.18;8.60;;;0.70;80.30;;;;;;5042913;28;20124;-87
2021/01/10 03:06:44;;;;;;;15.55;8.05;;;0.70;80.40;;;;;;5044051;28;20102;-88
2021/01/10 03:09:11;;;;;;;13.60;7.68;;;0.70;80.50;;;;;;5043663;28;20022;-86
2021/01/10 03:11:39;;;;;;;12.38;8.02;;;0.70;80.40;;;;;;5043523;28;20072;-88
2021/01/10 03:14:04;;;;;;;16.48;8.65;;;0.60;80.40;;;;;;5045244;28;20065;-88
2021/01/10 03:16:31;;;;;;;13.43;8.18;;;0.60;80.50;;;;;;5041748;28;20095;-88
2021/01/10 03:18:56;;;;;;;16.15;9.00;;;0.60;80.70;;;;;;5044091;28;20033;-89
2021/01/10 03:21:22;;;;;;;14.18;8.10;;;0.60;80.70;;;;;;5043929;28;20079;-87
2021/01/10 03:23:47;;;;;;;16.30;9.25;;;0.70;80.60;;;;;;5035145;28;20097;-88
2021/01/10 03:26:13;;;;;;;13.50;8.93;;;0.60;80.50;;;;;;5040470;28;20040;-88
2021/01/10 03:28:39;;;;;;;14.63;8.10;;;0.60;80.60;;;;;;5043113;28;20032;-88
2021/01/10 03:31:04;;;;;;;13.55;8.38;;;0.70;80.80;;;;;;5043139;28;20472;-87
2021/01/10 03:33:30;;;;;;;12.63;8.23;;;0.70;80.70;;;;;;5043171;28;20469;-87
2021/01/10 03:35:55;;;;;;;15.20;8.20;;;0.80;80.70;;;;;;5046362;28;20067;-87
2021/01/10 03:38:21;;;;;;;14.25;8.68;;;0.90;80.60;;;;;;5045936;28;20029;-87
2021/01/10 03:40:46;;;;;;;16.10;9.00;;;0.90;80.30;;;;;;5049667;28;20117;-86
2021/01/10 03:43:12;;;;;;;15.07;8.45;;;0.90;80.20;;;;;;5050282;28;20030;-87
2021/01/10 03:45:37;;;;;;;14.38;8.35;;;0.80;80.20;;;;;;5050498;28;20097;-86
2021/01/10 03:48:03;;;;;;;11.70;7.50;;;0.80;80.30;;;;;;5053258;28;20040;-86
2021/01/10 03:50:29;;;;;;;13.20;8.23;;;0.80;80.40;;;;;;5051779;28;20036;-86
2021/01/10 03:52:54;;;;;;;12.70;7.22;;;0.80;80.30;;;;;;5049546;28;20017;-87
2021/01/10 03:55:20;;;;;;;15.20;8.02;;;0.90;80.30;;;;;;5045973;28;20338;-87
2021/01/10 03:57:46;;;;;;;14.63;8.68;;;0.80;80.30;;;;;;5033598;28;20033;-88
2021/01/10 04:00:12;;;;;;;15.90;8.48;;;0.90;80.30;;;;;;5049424;28;20044;-87
2021/01/10 04:02:38;;;;;;;15.02;8.88;;;0.90;80.40;;;;;;5050722;28;20037;-87
2021/01/10 04:05:05;;;;;;;11.75;7.55;;;0.90;80.40;;;;;;5051211;28;20375;-87
2021/01/10 04:07:31;;;;;;;13.95;8.48;;;0.90;80.30;;;;;;5049233;28;20005;-88
2021/01/10 04:09:56;;;;;;;13.95;8.48;;;0.90;80.30;;;;;;5030957;28;20077;-87
2021/01/10 04:12:22;;;;;;;12.45;7.32;;;1.00;80.30;;;;;;5033051;28;20033;-87
2021/01/10 04:14:47;;;;;;;14.75;8.15;;;1.00;80.80;;;;;;5048722;28;20491;-87
2021/01/10 04:17:13;;;;;;;12.07;7.22;;;1.00;80.10;;;;;;5047240;28;20029;-87
2021/01/10 04:19:38;;;;;;;13.65;7.95;;;1.00;80.20;;;;;;5048682;28;20029;-87
2021/01/10 04:22:04;;;;;;;12.57;7.80;;;0.90;80.30;;;;;;5046497;28;20034;-87
2021/01/10 04:24:30;;;;;;;12.98;7.70;;;1.00;80.30;;;;;;5041167;28;20032;-86
2021/01/10 04:26:55;;;;;;;12.60;7.43;;;1.00;80.20;;;;;;5046436;28;20029;-87
2021/01/10 04:29:21;;;;;;;13.18;7.72;;;1.00;80.30;;;;;;5049375;28;20018;-88
2021/01/10 04:31:48;;;;;;;11.70;7.50;;;1.00;80.30;;;;;;5048680;28;20060;-88
2021/01/10 04:34:14;;;;;;;11.38;7.47;;;1.10;80.20;;;;;;5048289;28;20022;-87
2021/01/10 04:36:41;;;;;;;14.30;8.32;;;1.10;80.10;;;;;;5048573;28;20061;-86
2021/01/10 04:39:06;;;;;;;14.20;8.43;;;1.10;80.10;;;;;;5048063;28;20033;-86
2021/01/10 04:41:33;;;;;;;17.40;9.45;;;1.10;80.10;;;;;;5048551;28;20044;-86
2021/01/10 04:43:59;;;;;;;17.13;9.93;;;1.20;80.10;;;;;;5048311;28;20033;-86
2021/01/10 04:46:27;;;;;;;15.07;9.45;;;1.20;80.00;;;;;;5048300;28;20061;-88
2021/01/10 04:48:55;;;;;;;17.83;8.50;;;1.20;80.00;;;;;;5047524;28;20032;-87
2021/01/10 04:51:24;;;;;;;17.35;9.10;;;1.20;79.90;;;;;;5047040;28;20029;-87
2021/01/10 04:53:50;;;;;;;14.55;8.63;;;1.20;79.90;;;;;;5048172;28;20029;-86
2021/01/10 04:56:18;;;;;;;13.93;8.18;;;1.20;79.90;;;;;;5047707;28;20093;-86
2021/01/10 04:58:51;;;;;;;16.30;9.27;;;1.10;79.90;;;;;;5047722;28;20049;-87
2021/01/10 05:01:22;;;;;;;12.50;8.02;;;1.10;79.90;;;;;;5047539;28;20039;-88
2021/01/10 05:03:47;;;;;;;12.10;7.63;;;1.10;80.00;;;;;;5045750;28;20034;-86
2021/01/10 05:06:15;;;;;;;11.93;7.35;;;1.10;80.00;;;;;;5048453;28;20029;-87
2021/01/10 05:08:41;;;;;;;16.15;8.27;;;1.10;80.00;;;;;;5048321;28;20030;-87
2021/01/10 05:11:06;;;;;;;15.60;7.88;;;1.10;80.00;;;;;;5048129;28;20017;-87
2021/01/10 05:13:32;;;;;;;13.25;7.10;;;1.10;80.00;;;;;;5046089;28;20033;-87
2021/01/10 05:15:59;;;;;;;9.48;6.30;;;1.10;80.00;;;;;;5046993;28;20029;-87
2021/01/10 05:18:24;;;;;;;10.23;7.00;;;1.10;80.00;;;;;;5046661;28;20034;-86
2021/01/10 05:20:54;;;;;;;16.35;7.30;;;1.10;80.00;;;;;;5046991;28;20053;-87
2021/01/10 05:23:26;;;;;;;11.35;7.00;;;1.10;80.10;;;;;;5046683;28;20030;-86
2021/01/10 05:26:02;;;;;;;;;;;1.10;80.00;;;;;;5036668;28;20367;-87
2021/01/10 05:28:29;;;;;;;9.85;6.20;;;1.10;79.90;;;;;;5043721;28;19909;-87
2021/01/10 05:30:55;;;;;;;12.98;7.13;;;1.00;79.70;;;;;;5047587;28;20340;-86
2021/01/10 05:33:20;;;;;;;14.32;7.22;;;0.90;79.80;;;;;;5048189;28;20025;-87
2021/01/10 05:35:51;;;;;;;10.93;6.97;;;0.80;80.10;;;;;;5048171;28;20037;-88
2021/01/10 05:38:26;;;;;;;10.85;7.50;;;0.80;80.30;;;;;;5047857;28;20033;-88
2021/01/10 05:40:56;;;;;;;12.85;7.40;;;0.80;80.60;;;;;;5048236;28;20491;-88
2021/01/10 05:43:23;;;;;;;11.73;7.47;;;0.90;80.60;;;;;;5047948;28;20033;-87
2021/01/10 05:45:49;;;;;;;12.38;7.10;;;0.90;80.30;;;;;;5047954;28;20075;-87
2021/01/10 05:48:16;;;;;;;10.23;6.30;;;0.90;80.20;;;;;;5047667;28;20055;-87
2021/01/10 05:50:47;;;;;;;11.10;6.80;;;1.00;80.30;;;;;;5047914;28;20045;-86
2021/01/10 05:53:23;;;;;;;12.38;7.55;;;0.90;80.70;;;;;;5114942;22;21039;-64
2021/01/10 05:55:58;;;;;;;13.30;7.38;;;0.90;80.20;;;;;;5033067;28;20481;-64
2021/01/10 05:58:25;;;;;;;13.23;7.78;;;0.90;80.20;;;;;;5024955;28;20122;-65
2021/01/10 06:00:52;;;;;;;10.13;6.63;;;0.90;80.20;;;;;;5036077;28;20025;-64
2021/01/10 06:03:20;;;;;;;11.43;7.32;;;1.00;80.20;;;;;;5036177;28;20596;-64
2021/01/10 06:06:04;;;;;;;12.55;7.18;;;1.00;80.10;;;;;;5034948;28;20037;-65
2021/01/10 06:08:33;;;;;;;11.05;7.13;;;1.00;80.00;;;;;;5035941;28;20481;-65
2021/01/10 06:11:24;;;;;;;10.98;6.65;;;1.00;80.00;;;;;;5035727;28;20453;-65
2021/01/10 06:14:04;;;;;;;13.27;8.30;;;1.00;80.00;;;;;;5039625;28;20025;-64
2021/01/10 06:16:36;;;;;;;12.68;7.57;;;0.90;79.90;;;;;;5034344;28;20085;-64
2021/01/10 06:19:07;;;;;;;12.27;7.32;;;0.90;80.20;;;;;;5035670;28;20033;-64
2021/01/10 06:21:34;;;;;;;11.50;7.38;;;0.90;80.20;;;;;;5035722;28;20728;-64
2021/01/10 06:24:02;;;;;;;10.82;6.43;;;0.90;80.10;;;;;;5041861;28;20025;-64
2021/01/10 06:26:32;;;;;;;12.45;6.93;;;0.90;80.20;;;;;;5034355;28;20427;-65
2021/01/10 06:29:08;;;;;;;8.73;6.00;;;0.90;80.20;;;;;;5036112;28;20437;-65
2021/01/10 06:31:46;;;;;;;10.77;6.03;;;0.90;80.10;;;;;;5034985;28;20033;-65
2021/01/10 06:34:12;;;;;;;7.82;5.20;;;0.80;79.90;;;;;;5033542;28;20017;-64
2021/01/10 06:36:40;;;;;;;8.23;5.15;;;0.80;80.00;;;;;;5032709;28;20033;-65
2021/01/10 06:39:07;;;;;;;7.95;5.50;;;0.70;80.10;;;;;;5035883;28;20033;-64
2021/01/10 06:41:35;;;;;;;6.72;4.90;;;0.70;80.20;;;;;;5035291;28;20124;-65
2021/01/10 06:44:09;;;;;;;6.35;4.45;;;0.80;80.10;;;;;;5031846;28;20032;-64
2021/01/10 06:46:35;;;;;;;7.72;5.10;;;0.70;79.90;;;;;;5032140;28;20030;-64
2021/01/10 06:49:01;;;;;;;7.07;4.88;;;0.70;80.10;;;;;;5032996;28;20100;-65
2021/01/10 06:51:31;;;;;;;8.40;5.30;;;0.70;80.10;;;;;;5032059;28;20486;-65
2021/01/10 06:54:03;;;;;;;7.88;5.28;;;0.70;80.20;;;;;;5037051;28;20043;-65
2021/01/10 06:56:29;;;;;;;7.28;5.38;;;0.70;80.20;;;;;;5032440;28;20132;-65
2021/01/10 06:59:14;;;;;;;10.35;5.88;;;0.60;80.00;;;;;;5032377;28;20509;-65
2021/01/10 07:01:57;;;;;;;8.70;5.68;;;0.70;80.10;;;;;;5032133;28;20385;-64
2021/01/10 07:04:48;;;;;;;7.28;5.35;;;0.70;80.10;;;;;;5030531;28;20112;-65
2021/01/10 07:07:32;;;;;;;7.50;5.18;;;0.70;80.00;;;;;;5027915;28;20037;-65
2021/01/10 07:09:59;;;;;;;7.25;5.30;;;0.70;79.90;;;;;;5032013;28;20170;-65
2021/01/10 07:12:25;;;;;;;8.30;5.53;;;0.70;79.80;;;;;;5032259;28;20026;-65
2021/01/10 07:14:51;;;;;;;7.30;5.13;;;0.70;79.80;;;;;;5031021;28;20041;-65
2021/01/10 07:17:17;;;;;;;8.15;5.00;;;0.70;80.00;;;;;;5023038;28;20032;-64
2021/01/10 07:19:46;;;;;;;6.05;4.57;;;0.60;79.90;;;;;;5030670;28;20033;-65
2021/01/10 07:22:30;;;;;;;6.78;5.18;;;0.70;79.60;;;;;;5032203;28;20025;-66
2021/01/10 07:24:56;;;;;;;9.10;5.43;;;0.60;79.60;;;;;;5029892;28;20032;-64
2021/01/10 07:27:33;;;;;;;7.65;5.22;;;0.60;79.80;;;;;;5032096;28;20013;-65
2021/01/10 07:30:18;;;;;;;6.15;4.78;;;0.50;79.80;;;;;;5032067;28;20102;-64
2021/01/10 07:32:44;;;;;;;9.60;5.57;;;0.50;79.80;;;;;;5039313;28;20034;-64
2021/01/10 07:35:10;;;;;;;6.85;4.80;;;0.50;80.00;;;;;;5029167;28;20029;-65
2021/01/10 07:37:36;;;;;;;8.93;5.45;;;0.50;79.90;;;;;;5030519;28;20040;-65
2021/01/10 07:40:05;;;;;;;8.30;5.57;;;0.50;79.80;;;;;;5031118;28;20040;-65
2021/01/10 07:42:36;;;;;;;6.88;4.80;;;0.40;79.70;;;;;;5044949;28;20029;-64
2021/01/10 07:45:26;;;;;;;7.70;4.90;;;0.40;79.60;;;;;;5041519;28;20107;-64
2021/01/10 07:47:52;;;;;;;9.25;5.03;;;0.30;79.60;;;;;;5030753;28;20095;-64
2021/01/10 07:50:17;;;;;;;8.10;5.30;;;0.30;79.60;;;;;;5029866;28;20033;-65
2021/01/10 07:52:44;;;;;;;6.82;4.68;;;0.20;79.60;;;;;;5031034;28;20053;-65
2021/01/10 07:55:17;;;;;;;7.68;4.80;;;0.20;79.70;;;;;;5025418;28;20136;-65
2021/01/10 07:57:47;;;;;;;8.23;4.93;;;0.10;79.50;;;;;;5029549;28;20405;-65
2021/01/10 08:00:18;;;;;;;7.40;4.85;;;0.10;79.60;;;;;;5030033;28;20022;-65
2021/01/10 08:03:03;;;;;;;9.70;5.38;;;0.00;79.70;;;;;;5041295;28;20032;-65
2021/01/10 08:05:40;;;;;;;10.50;5.00;;;0.00;79.70;;;;;;5032433;28;20021;-65
2021/01/10 08:08:12;;;;;;;7.35;4.72;;;-0.10;79.50;;;;;;5031145;28;20017;-65
2021/01/10 08:10:52;;;;;;;9.67;5.57;;;-0.20;79.70;;;;;;5030342;28;20029;-65
2021/01/10 08:13:26;;;;;;;6.72;4.95;;;-0.20;79.80;;;;;;5044656;28;20047;-65
2021/01/10 08:15:53;;;;;;;8.82;5.30;;;-0.10;79.80;;;;;;5033175;28;20033;-65
2021/01/10 08:18:21;;;;;;;8.95;5.53;;;-0.20;79.80;;;;;;5029997;28;20079;-65
2021/01/10 08:20:51;;;;;;;10.65;5.88;;;-0.20;79.80;;;;;;5030517;28;20484;-65
2021/01/10 08:23:17;;;;;;;36.67;11.40;;;-0.20;80.00;;;;;;5032575;28;20030;-65
2021/01/10 08:25:43;;;;;;;22.63;9.18;;;-0.10;80.00;;;;;;5032922;28;20501;-65
2021/01/10 08:28:11;;;;;;;13.93;7.95;;;-0.10;79.90;;;;;;5029559;28;20044;-65
2021/01/10 08:30:37;;;;;;;9.43;6.78;;;-0.20;79.70;;;;;;5029403;28;20575;-65
2021/01/10 08:33:03;;;;;;;13.63;7.30;;;-0.20;79.70;;;;;;5030751;28;20025;-65
2021/01/10 08:35:29;;;;;;;16.83;10.73;;;-0.20;79.70;;;;;;5029327;28;20036;-65
2021/01/10 08:37:54;;;;;;;15.45;9.65;;;-0.20;79.70;;;;;;5030455;28;20030;-65
2021/01/10 08:40:20;;;;;;;11.73;7.30;;;-0.10;79.70;;;;;;5029751;28;20025;-65
2021/01/10 08:42:46;;;;;;;9.60;6.43;;;-0.10;79.60;;;;;;5028937;28;20084;-65
2021/01/10 08:45:20;;;;;;;10.10;6.68;;;0.00;79.60;;;;;;5029959;28;20545;-65
2021/01/10 08:47:46;;;;;;;14.30;7.85;;;0.00;79.50;;;;;;5030190;28;20021;-65
2021/01/10 08:50:13;;;;;;;14.23;7.70;;;0.00;79.40;;;;;;5024639;28;20033;-65
2021/01/10 08:52:55;;;;;;;11.65;6.97;;;0.10;79.40;;;;;;5034669;28;20513;-65
2021/01/10 08:55:31;;;;;;;11.38;7.00;;;0.10;79.30;;;;;;5032086;28;20037;-65
2021/01/10 08:57:57;;;;;;;11.20;7.22;;;0.10;79.20;;;;;;5038840;28;20435;-65
2021/01/10 09:00:24;;;;;;;10.63;7.05;;;0.10;79.20;;;;;;5028784;28;20025;-65
2021/01/10 09:02:50;;;;;;;9.50;6.22;;;0.20;79.40;;;;;;5041026;28;20059;-65
2021/01/10 09:05:26;;;;;;;10.32;6.20;;;0.20;79.30;;;;;;5029072;28;20073;-65
2021/01/10 09:07:58;;;;;;;9.93;6.13;;;0.20;79.30;;;;;;5042957;28;20651;-65
2021/01/10 09:10:28;;;;;;;10.70;6.22;;;0.20;79.30;;;;;;5028659;28;20030;-65
2021/01/10 09:12:58;;;;;;;11.40;6.50;;;0.20;79.20;;;;;;5028757;28;20029;-65
2021/01/10 09:15:33;;;;;;;9.93;5.80;;;0.20;79.20;;;;;;5026736;28;20026;-65
2021/01/10 09:18:03;;;;;;;10.30;5.97;;;0.20;79.30;;;;;;5024993;28;20386;-65
2021/01/10 09:20:31;;;;;;;9.90;5.80;;;0.20;79.40;;;;;;5027895;28;20029;-66
2021/01/10 09:22:58;;;;;;;9.35;6.10;;;0.30;79.60;;;;;;5027793;28;20028;-65
2021/01/10 09:25:24;;;;;;;11.25;6.68;;;0.30;79.40;;;;;;5035685;28;20456;-66
2021/01/10 09:28:12;;;;;;;10.32;6.00;;;0.30;79.40;;;;;;5026474;28;20485;-65
2021/01/10 09:30:45;;;;;;;9.48;5.82;;;0.40;79.50;;;;;;5027138;28;20037;-65
2021/01/10 09:33:12;;;;;;;9.13;6.07;;;0.40;79.30;;;;;;5029648;28;20100;-65
2021/01/10 09:35:45;;;;;;;11.60;6.82;;;0.50;79.30;;;;;;5028985;28;20108;-64
2021/01/10 09:38:19;;;;;;;8.52;6.13;;;0.50;79.30;;;;;;5022636;28;20056;-65
2021/01/10 09:41:13;;;;;;;9.13;6.60;;;0.50;79.30;;;;;;5023343;28;20091;-64
2021/01/10 09:43:49;;;;;;;9.48;5.72;;;0.60;79.50;;;;;;5027325;28;20084;-64
2021/01/10 09:46:24;;;;;;;12.13;6.50;;;0.70;79.40;;;;;;5028793;28;20108;-64
2021/01/10 09:48:54;;;;;;;13.18;6.18;;;0.70;79.30;;;;;;5027673;28;20022;-64
2021/01/10 09:51:20;;;;;;;9.32;5.97;;;0.80;79.10;;;;;;5031092;28;20025;-65
2021/01/10 09:53:48;;;;;;;9.95;7.07;;;0.90;79.10;;;;;;5044421;28;20056;-64
2021/01/10 09:56:35;;;;;;;10.65;6.63;;;0.90;79.00;;;;;;5028431;28;20037;-64
2021/01/10 09:59:01;;;;;;;10.13;6.53;;;1.00;79.00;;;;;;5023420;28;20076;-64
2021/01/10 10:01:39;;;;;;;10.95;5.80;;;0.90;78.80;;;;;;5030092;28;20061;-63
2021/01/10 10:04:05;;;;;;;11.85;6.20;;;0.90;78.80;;;;;;5034672;28;20108;-64
2021/01/10 10:06:50;;;;;;;12.75;6.70;;;0.90;78.70;;;;;;5039561;28;20116;-64
2021/01/10 10:09:16;;;;;;;8.57;5.80;;;0.80;78.90;;;;;;5028435;28;20029;-63
2021/01/10 10:11:41;;;;;;;11.63;6.40;;;0.80;79.10;;;;;;5035814;28;20447;-64
2021/01/10 10:14:11;;;;;;;9.75;6.47;;;0.80;79.20;;;;;;5033192;28;20100;-66
2021/01/10 10:16:36;;;;;;;12.45;6.90;;;0.80;79.20;;;;;;5031384;28;20084;-66
2021/01/10 10:19:02;;;;;;;9.55;6.30;;;0.70;79.10;;;;;;5031399;28;20033;-66
2021/01/10 10:21:28;;;;;;;11.00;6.55;;;0.80;79.20;;;;;;5031153;28;20025;-65
2021/01/10 10:23:53;;;;;;;10.40;6.65;;;0.80;79.30;;;;;;5039405;28;20021;-64
2021/01/10 10:26:19;;;;;;;10.82;6.45;;;0.80;79.50;;;;;;5032535;28;20041;-64
2021/01/10 10:28:45;;;;;;;9.75;6.22;;;0.80;79.50;;;;;;5033057;28;20025;-64
2021/01/10 10:31:11;;;;;;;9.75;6.20;;;0.90;79.40;;;;;;5034002;28;20087;-63
2021/01/10 10:33:37;;;;;;;9.85;6.00;;;0.90;79.40;;;;;;5027866;28;20111;-64
2021/01/10 10:36:03;;;;;;;14.07;7.13;;;0.90;79.30;;;;;;5027624;28;20104;-66
2021/01/10 10:38:31;;;;;;;12.00;6.95;;;0.90;79.30;;;;;;5032859;28;20505;-65
2021/01/10 10:40:57;;;;;;;10.73;6.45;;;0.90;79.20;;;;;;5036787;28;20068;-65
2021/01/10 10:43:22;;;;;;;12.30;7.15;;;0.90;79.30;;;;;;5032365;28;20025;-65
2021/01/10 10:45:48;;;;;;;9.90;6.40;;;1.00;79.40;;;;;;5033261;28;20603;-64
2021/01/10 10:48:13;;;;;;;9.80;6.00;;;1.00;79.40;;;;;;5029452;28;20052;-64
2021/01/10 10:50:39;;;;;;;11.95;6.88;;;1.10;79.40;;;;;;5029341;28;20029;-66
2021/01/10 10:53:05;;;;;;;9.85;6.35;;;1.20;79.30;;;;;;5036505;28;20018;-65
2021/01/10 10:55:32;;;;;;;11.65;7.03;;;1.30;79.40;;;;;;5027939;28;20463;-65
2021/01/10 10:57:58;;;;;;;11.23;6.75;;;1.40;79.30;;;;;;5026024;28;20040;-65
2021/01/10 11:00:24;;;;;;;12.07;6.63;;;1.50;78.90;;;;;;5026822;28;20112;-64
2021/01/10 11:02:49;;;;;;;10.02;7.00;;;1.50;79.00;;;;;;5030786;28;20474;-65
2021/01/10 11:05:15;;;;;;;13.25;7.03;;;1.50;78.90;;;;;;5027457;28;20047;-65
2021/01/10 11:07:40;;;;;;;10.25;6.82;;;1.60;79.00;;;;;;5021443;28;20036;-65
2021/01/10 11:10:07;;;;;;;11.23;7.00;;;1.50;78.70;;;;;;5023480;28;20037;-64
2021/01/10 11:12:33;;;;;;;11.52;7.28;;;1.50;78.60;;;;;;5025052;28;20183;-65
2021/01/10 11:15:04;;;;;;;12.70;7.00;;;1.40;78.60;;;;;;5027651;28;20569;-65
2021/01/10 11:17:29;;;;;;;11.15;6.18;;;1.40;78.80;;;;;;5029103;28;20056;-65
2021/01/10 11:19:55;;;;;;;10.38;6.50;;;1.40;78.90;;;;;;5028629;28;20057;-65
2021/01/10 11:22:22;;;;;;;10.82;6.60;;;1.30;79.10;;;;;;5029942;28;20090;-66
2021/01/10 11:24:47;;;;;;;11.27;6.65;;;1.40;79.00;;;;;;5028671;28;20072;-65
2021/01/10 11:27:13;;;;;;;10.65;6.47;;;1.40;78.90;;;;;;5028887;28;20390;-65
2021/01/10 11:29:38;;;;;;;10.85;7.05;;;1.30;78.80;;;;;;5029313;28;20039;-65
2021/01/10 11:32:04;;;;;;;11.38;6.65;;;1.30;78.90;;;;;;5025929;28;20444;-65
2021/01/10 11:34:30;;;;;;;11.63;6.93;;;1.30;78.90;;;;;;5028390;28;20022;-64
2021/01/10 11:36:56;;;;;;;10.88;6.93;;;1.30;78.90;;;;;;5028043;28;20048;-66
2021/01/10 11:39:30;;;;;;;10.60;6.38;;;1.30;78.90;;;;;;5028792;28;20097;-65
2021/01/10 11:41:56;;;;;;;11.10;6.68;;;1.40;78.90;;;;;;5027521;28;20026;-64
2021/01/10 11:44:24;;;;;;;11.00;6.95;;;1.30;78.70;;;;;;5025518;28;20029;-64
2021/01/10 11:46:51;;;;;;;12.38;6.63;;;1.30;78.80;;;;;;5029306;28;20045;-66
2021/01/10 11:49:17;;;;;;;9.48;6.50;;;1.30;79.00;;;;;;5028258;28;20087;-66
2021/01/10 11:51:44;;;;;;;11.57;6.78;;;1.40;79.00;;;;;;5029320;28;20037;-65
2021/01/10 11:54:12;;;;;;;11.68;6.32;;;1.40;78.90;;;;;;5076401;22;20061;-92
2021/01/10 11:56:39;;;;;;;11.25;6.38;;;1.40;78.80;;;;;;5034445;28;20025;-91
2021/01/10 11:59:04;;;;;;;10.27;5.97;;;1.50;79.30;;;;;;5050351;28;20041;-91
2021/01/10 12:01:34;;;;;;;10.70;6.50;;;1.60;78.80;;;;;;5058849;28;20078;-91
2021/01/10 12:04:00;;;;;;;10.13;6.47;;;1.60;78.70;;;;;;5052645;28;20123;-91
2021/01/10 12:06:26;;;;;;;10.85;7.00;;;1.60;78.50;;;;;;5054912;28;20033;-91
2021/01/10 12:08:52;;;;;;;11.63;6.70;;;1.70;78.30;;;;;;5052876;28;20378;-90
2021/01/10 12:11:18;;;;;;;11.95;6.43;;;1.80;78.10;;;;;;5051842;28;20063;-89
2021/01/10 12:13:45;;;;;;;12.75;7.32;;;1.90;78.00;;;;;;5052922;28;20040;-90
2021/01/10 12:16:11;;;;;;;11.15;6.80;;;2.00;77.80;;;;;;5054415;28;20025;-91
2021/01/10 12:18:37;;;;;;;9.95;6.43;;;2.20;77.50;;;;;;5056005;28;20013;-91
2021/01/10 12:21:10;;;;;;;11.05;7.30;;;2.30;77.30;;;;;;5051954;28;20025;-92
2021/01/10 12:23:37;;;;;;;11.70;7.07;;;2.50;77.00;;;;;;5053393;28;20563;-89
2021/01/10 12:26:07;;;;;;;10.13;6.85;;;2.70;76.80;;;;;;5052820;28;20025;-89
2021/01/10 12:28:33;;;;;;;10.38;6.53;;;2.80;76.70;;;;;;5053565;28;20091;-91
2021/01/10 12:30:59;;;;;;;10.30;6.57;;;2.90;76.60;;;;;;5051979;28;20025;-91
2021/01/10 12:33:24;;;;;;;11.88;7.00;;;3.00;76.50;;;;;;5054408;28;20056;-92
2021/01/10 12:35:50;;;;;;;10.20;6.88;;;3.20;76.40;;;;;;5053080;28;20074;-92
2021/01/10 12:38:15;;;;;;;10.73;6.72;;;3.30;75.90;;;;;;5052228;28;20114;-92
2021/01/10 12:40:41;;;;;;;9.60;6.28;;;3.30;76.00;;;;;;5053089;28;20033;-91
2021/01/10 12:43:06;;;;;;;11.27;7.28;;;3.40;75.80;;;;;;5051689;28;20036;-91
2021/01/10 12:45:32;;;;;;;11.02;6.53;;;3.40;75.80;;;;;;5052628;28;20121;-92
2021/01/10 12:47:58;;;;;;;10.40;6.43;;;3.50;76.00;;;;;;5053031;28;20463;-92
2021/01/10 12:50:23;;;;;;;11.18;6.90;;;3.50;75.60;;;;;;5051656;28;20085;-91
2021/01/10 12:52:49;;;;;;;10.32;6.25;;;3.60;75.50;;;;;;5053535;28;20025;-91
2021/01/10 12:55:15;;;;;;;11.43;7.45;;;3.60;75.40;;;;;;5051697;28;20029;-92
2021/01/10 12:57:40;;;;;;;10.82;7.07;;;3.60;75.30;;;;;;5052362;28;20029;-91
2021/01/10 13:00:11;;;;;;;9.75;6.35;;;3.60;75.70;;;;;;5052025;28;20111;-91